sensor_id;sensor_type;location;lat;lon;timestamp;P1;P2;P0
56688;PMS5003;42565;53.342;-1.534;2022-07-10T00:00:57;4;4;
56688;PMS5003;42565;53.342;-1.534;2022-07-10T00:03:24;4;4;
56688;PMS5003;42565;53.342;-1.534;2022-07-10T00:05:50;3;3;
56688;PMS5003;42565;53.342;-1.534;2022-07-10T00:08:17;4;3;
56688;PMS5003;42565;53.342;-1.534;2022-07-10T00:10:45;3;2;
56688;PMS5003;42565;53.342;-1.534;2022-07-10T00:13:11;3;3;
56688;PMS5003;42565;53.342;-1.534;2022-07-10T00:15:38;5;5;
56688;PMS5003;42565;53.342;-1.534;2022-07-10T00:18:05;4;4;
56688;PMS5003;42565;53.342;-1.534;2022-07-10T00:20:32;6;4;
56688;PMS5003;42565;53.342;-1.534;2022-07-10T00:23:00;4;4;
56688;PMS5003;42565;53.342;-1.534;2022-07-10T00:25:28;3;3;
56688;PMS5003;42565;53.342;-1.534;2022-07-10T00:27:55;5;4;
56688;PMS5003;42565;53.342;-1.534;2022-07-10T00:30:22;5;5;
56688;PMS5003;42565;53.342;-1.534;2022-07-10T00:32:50;4;4;
56688;PMS5003;42565;53.342;-1.534;2022-07-10T00:35:17;3;3;
56688;PMS5003;42565;53.342;-1.534;2022-07-10T00:37:44;3;2;
56688;PMS5003;42565;53.342;-1.534;2022-07-10T00:40:11;5;5;
56688;PMS5003;42565;53.342;-1.534;2022-07-10T00:42:38;3;3;
56688;PMS5003;42565;53.342;-1.534;2022-07-10T00:45:05;4;4;
56688;PMS5003;42565;53.342;-1.534;2022-07-10T00:47:34;3;2;
56688;PMS5003;42565;53.342;-1.534;2022-07-10T00:50:01;5;4;
56688;PMS5003;42565;53.342;-1.534;2022-07-10T00:52:29;4;4;
56688;PMS5003;42565;53.342;-1.534;2022-07-10T00:54:56;3;3;
56688;PMS5003;42565;53.342;-1.534;2022-07-10T00:57:24;1;1;
56688;PMS5003;42565;53.342;-1.534;2022-07-10T00:59:50;2;2;
56688;PMS5003;42565;53.342;-1.534;2022-07-10T01:02:18;4;4;
56688;PMS5003;42565;53.342;-1.534;2022-07-10T01:04:46;3;3;
56688;PMS5003;42565;53.342;-1.534;2022-07-10T01:07:13;3;3;
56688;PMS5003;42565;53.342;-1.534;2022-07-10T01:09:41;3;3;
56688;PMS5003;42565;53.342;-1.534;2022-07-10T01:12:08;3;3;
56688;PMS5003;42565;53.342;-1.534;2022-07-10T01:14:38;3;3;
56688;PMS5003;42565;53.342;-1.534;2022-07-10T01:17:06;4;4;
56688;PMS5003;42565;53.342;-1.534;2022-07-10T01:19:33;4;4;
56688;PMS5003;42565;53.342;-1.534;2022-07-10T01:22:01;4;4;
56688;PMS5003;42565;53.342;-1.534;2022-07-10T01:24:29;3;3;
56688;PMS5003;42565;53.342;-1.534;2022-07-10T01:26:56;3;3;
56688;PMS5003;42565;53.342;-1.534;2022-07-10T01:29:23;3;3;
56688;PMS5003;42565;53.342;-1.534;2022-07-10T01:31:50;3;3;
56688;PMS5003;42565;53.342;-1.534;2022-07-10T01:34:17;3;3;
56688;PMS5003;42565;53.342;-1.534;2022-07-10T01:36:44;3;3;
56688;PMS5003;42565;53.342;-1.534;2022-07-10T01:39:11;3;3;
56688;PMS5003;42565;53.342;-1.534;2022-07-10T01:41:39;4;4;
56688;PMS5003;42565;53.342;-1.534;2022-07-10T01:44:06;3;3;
56688;PMS5003;42565;53.342;-1.534;2022-07-10T01:46:32;4;4;
56688;PMS5003;42565;53.342;-1.534;2022-07-10T01:48:59;4;3;
56688;PMS5003;42565;53.342;-1.534;2022-07-10T01:51:26;3;3;
56688;PMS5003;42565;53.342;-1.534;2022-07-10T01:53:52;3;3;
56688;PMS5003;42565;53.342;-1.534;2022-07-10T01:56:19;5;4;
56688;PMS5003;42565;53.342;-1.534;2022-07-10T01:58:46;4;4;
56688;PMS5003;42565;53.342;-1.534;2022-07-10T02:01:12;6;6;
56688;PMS5003;42565;53.342;-1.534;2022-07-10T02:03:39;6;6;
56688;PMS5003;42565;53.342;-1.534;2022-07-10T02:06:07;7;7;
56688;PMS5003;42565;53.342;-1.534;2022-07-10T02:08:34;7;7;
56688;PMS5003;42565;53.342;-1.534;2022-07-10T02:11:02;7;7;
56688;PMS5003;42565;53.342;-1.534;2022-07-10T02:13:29;4;4;
56688;PMS5003;42565;53.342;-1.534;2022-07-10T02:15:57;6;6;
56688;PMS5003;42565;53.342;-1.534;2022-07-10T02:18:25;3;3;
56688;PMS5003;42565;53.342;-1.534;2022-07-10T02:20:52;3;3;
56688;PMS5003;42565;53.342;-1.534;2022-07-10T02:23:20;4;4;
56688;PMS5003;42565;53.342;-1.534;2022-07-10T02:25:46;3;3;
56688;PMS5003;42565;53.342;-1.534;2022-07-10T02:28:13;4;4;
56688;PMS5003;42565;53.342;-1.534;2022-07-10T02:30:40;3;3;
56688;PMS5003;42565;53.342;-1.534;2022-07-10T02:33:08;4;4;
56688;PMS5003;42565;53.342;-1.534;2022-07-10T02:35:35;4;4;
56688;PMS5003;42565;53.342;-1.534;2022-07-10T02:38:01;4;4;
56688;PMS5003;42565;53.342;-1.534;2022-07-10T02:40:29;4;4;
56688;PMS5003;42565;53.342;-1.534;2022-07-10T02:42:56;3;3;
56688;PMS5003;42565;53.342;-1.534;2022-07-10T02:45:22;3;3;
56688;PMS5003;42565;53.342;-1.534;2022-07-10T02:47:49;4;3;
56688;PMS5003;42565;53.342;-1.534;2022-07-10T02:50:16;3;3;
56688;PMS5003;42565;53.342;-1.534;2022-07-10T02:52:42;3;3;
56688;PMS5003;42565;53.342;-1.534;2022-07-10T02:55:09;2;2;
56688;PMS5003;42565;53.342;-1.534;2022-07-10T02:57:36;3;3;
56688;PMS5003;42565;53.342;-1.534;2022-07-10T03:00:04;4;4;
56688;PMS5003;42565;53.342;-1.534;2022-07-10T03:02:32;2;2;
56688;PMS5003;42565;53.342;-1.534;2022-07-10T03:04:59;3;3;
56688;PMS5003;42565;53.342;-1.534;2022-07-10T03:07:27;2;2;
56688;PMS5003;42565;53.342;-1.534;2022-07-10T03:09:54;4;4;
56688;PMS5003;42565;53.342;-1.534;2022-07-10T03:12:20;3;3;
56688;PMS5003;42565;53.342;-1.534;2022-07-10T03:14:47;3;3;
56688;PMS5003;42565;53.342;-1.534;2022-07-10T03:17:14;5;5;
56688;PMS5003;42565;53.342;-1.534;2022-07-10T03:19:40;3;3;
56688;PMS5003;42565;53.342;-1.534;2022-07-10T03:22:07;3;3;
56688;PMS5003;42565;53.342;-1.534;2022-07-10T03:24:35;4;4;
56688;PMS5003;42565;53.342;-1.534;2022-07-10T03:27:01;4;3;
56688;PMS5003;42565;53.342;-1.534;2022-07-10T03:29:29;3;3;
56688;PMS5003;42565;53.342;-1.534;2022-07-10T03:31:56;3;3;
56688;PMS5003;42565;53.342;-1.534;2022-07-10T03:34:23;3;3;
56688;PMS5003;42565;53.342;-1.534;2022-07-10T03:36:51;3;3;
56688;PMS5003;42565;53.342;-1.534;2022-07-10T03:39:17;5;4;
56688;PMS5003;42565;53.342;-1.534;2022-07-10T03:41:44;5;4;
56688;PMS5003;42565;53.342;-1.534;2022-07-10T03:44:11;5;4;
56688;PMS5003;42565;53.342;-1.534;2022-07-10T03:46:38;3;3;
56688;PMS5003;42565;53.342;-1.534;2022-07-10T03:49:05;3;3;
56688;PMS5003;42565;53.342;-1.534;2022-07-10T03:51:32;4;4;
56688;PMS5003;42565;53.342;-1.534;2022-07-10T03:53:58;4;4;
56688;PMS5003;42565;53.342;-1.534;2022-07-10T03:56:26;5;4;
56688;PMS5003;42565;53.342;-1.534;2022-07-10T03:58:53;4;4;
56688;PMS5003;42565;53.342;-1.534;2022-07-10T04:01:19;5;5;
56688;PMS5003;42565;53.342;-1.534;2022-07-10T04:03:46;5;4;
56688;PMS5003;42565;53.342;-1.534;2022-07-10T04:06:13;4;4;
56688;PMS5003;42565;53.342;-1.534;2022-07-10T04:08:39;4;4;
56688;PMS5003;42565;53.342;-1.534;2022-07-10T04:11:06;4;4;
56688;PMS5003;42565;53.342;-1.534;2022-07-10T04:13:33;3;3;
56688;PMS5003;42565;53.342;-1.534;2022-07-10T04:15:59;3;3;
56688;PMS5003;42565;53.342;-1.534;2022-07-10T04:18:26;3;3;
56688;PMS5003;42565;53.342;-1.534;2022-07-10T04:20:53;3;3;
56688;PMS5003;42565;53.342;-1.534;2022-07-10T04:23:20;4;3;
56688;PMS5003;42565;53.342;-1.534;2022-07-10T04:25:46;4;4;
56688;PMS5003;42565;53.342;-1.534;2022-07-10T04:28:14;4;4;
56688;PMS5003;42565;53.342;-1.534;2022-07-10T04:30:41;4;3;
56688;PMS5003;42565;53.342;-1.534;2022-07-10T04:33:08;4;4;
56688;PMS5003;42565;53.342;-1.534;2022-07-10T04:35:35;3;3;
56688;PMS5003;42565;53.342;-1.534;2022-07-10T04:38:02;4;4;
56688;PMS5003;42565;53.342;-1.534;2022-07-10T04:40:29;3;3;
56688;PMS5003;42565;53.342;-1.534;2022-07-10T04:42:56;4;4;
56688;PMS5003;42565;53.342;-1.534;2022-07-10T04:45:22;3;3;
56688;PMS5003;42565;53.342;-1.534;2022-07-10T04:47:49;4;4;
56688;PMS5003;42565;53.342;-1.534;2022-07-10T04:50:17;5;5;
56688;PMS5003;42565;53.342;-1.534;2022-07-10T04:52:44;3;3;
56688;PMS5003;42565;53.342;-1.534;2022-07-10T04:55:12;4;3;
56688;PMS5003;42565;53.342;-1.534;2022-07-10T04:57:38;4;4;
56688;PMS5003;42565;53.342;-1.534;2022-07-10T05:00:06;4;4;
56688;PMS5003;42565;53.342;-1.534;2022-07-10T05:02:34;3;3;
56688;PMS5003;42565;53.342;-1.534;2022-07-10T05:05:00;4;4;
56688;PMS5003;42565;53.342;-1.534;2022-07-10T05:07:27;3;3;
56688;PMS5003;42565;53.342;-1.534;2022-07-10T05:09:54;4;3;
56688;PMS5003;42565;53.342;-1.534;2022-07-10T05:12:20;3;3;
56688;PMS5003;42565;53.342;-1.534;2022-07-10T05:14:47;3;3;
56688;PMS5003;42565;53.342;-1.534;2022-07-10T05:17:14;4;4;
56688;PMS5003;42565;53.342;-1.534;2022-07-10T05:19:40;4;4;
56688;PMS5003;42565;53.342;-1.534;2022-07-10T05:22:07;3;3;
56688;PMS5003;42565;53.342;-1.534;2022-07-10T05:24:34;2;2;
56688;PMS5003;42565;53.342;-1.534;2022-07-10T05:27:01;4;4;
56688;PMS5003;42565;53.342;-1.534;2022-07-10T05:29:29;3;3;
56688;PMS5003;42565;53.342;-1.534;2022-07-10T05:31:56;2;2;
56688;PMS5003;42565;53.342;-1.534;2022-07-10T05:34:22;3;3;
56688;PMS5003;42565;53.342;-1.534;2022-07-10T05:36:50;3;2;
56688;PMS5003;42565;53.342;-1.534;2022-07-10T05:39:17;1;1;
56688;PMS5003;42565;53.342;-1.534;2022-07-10T05:41:45;3;3;
56688;PMS5003;42565;53.342;-1.534;2022-07-10T05:44:12;4;4;
56688;PMS5003;42565;53.342;-1.534;2022-07-10T05:46:38;2;2;
56688;PMS5003;42565;53.342;-1.534;2022-07-10T05:49:05;3;3;
56688;PMS5003;42565;53.342;-1.534;2022-07-10T05:51:32;2;2;
56688;PMS5003;42565;53.342;-1.534;2022-07-10T05:53:58;2;2;
56688;PMS5003;42565;53.342;-1.534;2022-07-10T05:56:25;3;3;
56688;PMS5003;42565;53.342;-1.534;2022-07-10T05:58:52;1;1;
56688;PMS5003;42565;53.342;-1.534;2022-07-10T06:01:18;1;1;
56688;PMS5003;42565;53.342;-1.534;2022-07-10T06:03:45;3;3;
56688;PMS5003;42565;53.342;-1.534;2022-07-10T06:06:12;2;2;
56688;PMS5003;42565;53.342;-1.534;2022-07-10T06:08:38;2;2;
56688;PMS5003;42565;53.342;-1.534;2022-07-10T06:11:05;1;1;
56688;PMS5003;42565;53.342;-1.534;2022-07-10T06:13:32;1;1;
56688;PMS5003;42565;53.342;-1.534;2022-07-10T06:15:59;3;3;
56688;PMS5003;42565;53.342;-1.534;2022-07-10T06:18:25;2;1;
56688;PMS5003;42565;53.342;-1.534;2022-07-10T06:20:53;1;1;
56688;PMS5003;42565;53.342;-1.534;2022-07-10T06:23:20;2;2;
56688;PMS5003;42565;53.342;-1.534;2022-07-10T06:25:48;2;2;
56688;PMS5003;42565;53.342;-1.534;2022-07-10T06:28:15;1;1;
56688;PMS5003;42565;53.342;-1.534;2022-07-10T06:30:43;2;2;
56688;PMS5003;42565;53.342;-1.534;2022-07-10T06:33:10;3;2;
56688;PMS5003;42565;53.342;-1.534;2022-07-10T06:35:38;1;1;
56688;PMS5003;42565;53.342;-1.534;2022-07-10T06:38:05;2;2;
56688;PMS5003;42565;53.342;-1.534;2022-07-10T06:40:35;2;2;
56688;PMS5003;42565;53.342;-1.534;2022-07-10T06:43:03;1;1;
56688;PMS5003;42565;53.342;-1.534;2022-07-10T06:45:30;4;4;
56688;PMS5003;42565;53.342;-1.534;2022-07-10T06:47:58;3;3;
56688;PMS5003;42565;53.342;-1.534;2022-07-10T06:50:25;2;1;
56688;PMS5003;42565;53.342;-1.534;2022-07-10T06:52:54;3;2;
56688;PMS5003;42565;53.342;-1.534;2022-07-10T06:55:22;3;3;
56688;PMS5003;42565;53.342;-1.534;2022-07-10T06:57:50;3;3;
56688;PMS5003;42565;53.342;-1.534;2022-07-10T07:00:18;2;2;
56688;PMS5003;42565;53.342;-1.534;2022-07-10T07:02:45;3;3;
56688;PMS5003;42565;53.342;-1.534;2022-07-10T07:05:13;3;3;
56688;PMS5003;42565;53.342;-1.534;2022-07-10T07:07:40;4;3;
56688;PMS5003;42565;53.342;-1.534;2022-07-10T07:10:09;2;2;
56688;PMS5003;42565;53.342;-1.534;2022-07-10T07:12:37;2;2;
56688;PMS5003;42565;53.342;-1.534;2022-07-10T07:15:05;1;1;
56688;PMS5003;42565;53.342;-1.534;2022-07-10T07:17:38;2;2;
56688;PMS5003;42565;53.342;-1.534;2022-07-10T07:20:06;2;2;
56688;PMS5003;42565;53.342;-1.534;2022-07-10T07:22:34;2;2;
56688;PMS5003;42565;53.342;-1.534;2022-07-10T07:25:02;1;1;
56688;PMS5003;42565;53.342;-1.534;2022-07-10T07:27:29;1;1;
56688;PMS5003;42565;53.342;-1.534;2022-07-10T07:29:56;1;1;
56688;PMS5003;42565;53.342;-1.534;2022-07-10T07:32:23;1;1;
56688;PMS5003;42565;53.342;-1.534;2022-07-10T07:34:49;3;3;
56688;PMS5003;42565;53.342;-1.534;2022-07-10T07:37:16;4;3;
56688;PMS5003;42565;53.342;-1.534;2022-07-10T07:39:44;2;2;
56688;PMS5003;42565;53.342;-1.534;2022-07-10T07:42:10;2;2;
56688;PMS5003;42565;53.342;-1.534;2022-07-10T07:44:37;4;2;
56688;PMS5003;42565;53.342;-1.534;2022-07-10T07:47:04;1;1;
56688;PMS5003;42565;53.342;-1.534;2022-07-10T07:49:32;1;1;
56688;PMS5003;42565;53.342;-1.534;2022-07-10T07:51:59;1;1;
56688;PMS5003;42565;53.342;-1.534;2022-07-10T07:54:25;4;4;
56688;PMS5003;42565;53.342;-1.534;2022-07-10T07:56:52;1;1;
56688;PMS5003;42565;53.342;-1.534;2022-07-10T07:59:19;1;1;
56688;PMS5003;42565;53.342;-1.534;2022-07-10T08:01:45;2;2;
56688;PMS5003;42565;53.342;-1.534;2022-07-10T08:04:12;3;2;
56688;PMS5003;42565;53.342;-1.534;2022-07-10T08:06:39;2;2;
56688;PMS5003;42565;53.342;-1.534;2022-07-10T08:09:05;3;2;
56688;PMS5003;42565;53.342;-1.534;2022-07-10T08:11:33;3;2;
56688;PMS5003;42565;53.342;-1.534;2022-07-10T08:14:00;1;1;
56688;PMS5003;42565;53.342;-1.534;2022-07-10T08:16:27;2;2;
56688;PMS5003;42565;53.342;-1.534;2022-07-10T08:18:54;2;2;
56688;PMS5003;42565;53.342;-1.534;2022-07-10T08:21:21;2;2;
56688;PMS5003;42565;53.342;-1.534;2022-07-10T08:23:48;2;2;
56688;PMS5003;42565;53.342;-1.534;2022-07-10T08:26:15;1;1;
56688;PMS5003;42565;53.342;-1.534;2022-07-10T08:28:41;1;1;
56688;PMS5003;42565;53.342;-1.534;2022-07-10T08:31:08;1;1;
56688;PMS5003;42565;53.342;-1.534;2022-07-10T08:33:35;2;2;
56688;PMS5003;42565;53.342;-1.534;2022-07-10T08:36:02;1;1;
56688;PMS5003;42565;53.342;-1.534;2022-07-10T08:38:30;0;0;
56688;PMS5003;42565;53.342;-1.534;2022-07-10T08:40:57;2;2;
56688;PMS5003;42565;53.342;-1.534;2022-07-10T08:43:26;0;0;
56688;PMS5003;42565;53.342;-1.534;2022-07-10T08:45:54;1;1;
56688;PMS5003;42565;53.342;-1.534;2022-07-10T08:48:22;2;1;
56688;PMS5003;42565;53.342;-1.534;2022-07-10T08:50:51;1;1;
56688;PMS5003;42565;53.342;-1.534;2022-07-10T08:53:22;1;1;
56688;PMS5003;42565;53.342;-1.534;2022-07-10T08:55:53;1;1;
56688;PMS5003;42565;53.342;-1.534;2022-07-10T08:58:20;1;1;
56688;PMS5003;42565;53.342;-1.534;2022-07-10T09:00:49;2;2;
56688;PMS5003;42565;53.342;-1.534;2022-07-10T09:03:16;0;0;
56688;PMS5003;42565;53.342;-1.534;2022-07-10T09:05:43;2;2;
56688;PMS5003;42565;53.342;-1.534;2022-07-10T09:08:26;3;1;
56688;PMS5003;42565;53.342;-1.534;2022-07-10T09:11:12;1;1;
56688;PMS5003;42565;53.342;-1.534;2022-07-10T09:13:48;2;2;
56688;PMS5003;42565;53.342;-1.534;2022-07-10T09:16:20;3;2;
56688;PMS5003;42565;53.342;-1.534;2022-07-10T09:18:49;2;2;
56688;PMS5003;42565;53.342;-1.534;2022-07-10T09:21:16;2;2;
56688;PMS5003;42565;53.342;-1.534;2022-07-10T09:23:44;3;2;
56688;PMS5003;42565;53.342;-1.534;2022-07-10T09:26:11;2;2;
56688;PMS5003;42565;53.342;-1.534;2022-07-10T09:28:38;3;3;
56688;PMS5003;42565;53.342;-1.534;2022-07-10T09:31:05;3;3;
56688;PMS5003;42565;53.342;-1.534;2022-07-10T09:33:32;3;3;
56688;PMS5003;42565;53.342;-1.534;2022-07-10T09:36:01;1;1;
56688;PMS5003;42565;53.342;-1.534;2022-07-10T09:38:30;2;2;
56688;PMS5003;42565;53.342;-1.534;2022-07-10T09:41:19;3;2;
56688;PMS5003;42565;53.342;-1.534;2022-07-10T09:43:48;1;1;
56688;PMS5003;42565;53.342;-1.534;2022-07-10T09:46:17;1;1;
56688;PMS5003;42565;53.342;-1.534;2022-07-10T09:48:46;2;2;
56688;PMS5003;42565;53.342;-1.534;2022-07-10T09:51:13;2;2;
56688;PMS5003;42565;53.342;-1.534;2022-07-10T09:53:42;1;1;
56688;PMS5003;42565;53.342;-1.534;2022-07-10T09:56:10;2;2;
56688;PMS5003;42565;53.342;-1.534;2022-07-10T09:58:39;2;2;
56688;PMS5003;42565;53.342;-1.534;2022-07-10T10:01:07;1;1;
56688;PMS5003;42565;53.342;-1.534;2022-07-10T10:03:35;1;1;
56688;PMS5003;42565;53.342;-1.534;2022-07-10T10:06:04;1;1;
56688;PMS5003;42565;53.342;-1.534;2022-07-10T10:08:37;2;1;
56688;PMS5003;42565;53.342;-1.534;2022-07-10T10:11:14;1;1;
56688;PMS5003;42565;53.342;-1.534;2022-07-10T10:13:45;1;1;
56688;PMS5003;42565;53.342;-1.534;2022-07-10T10:16:13;1;1;
56688;PMS5003;42565;53.342;-1.534;2022-07-10T10:18:41;1;0;
56688;PMS5003;42565;53.342;-1.534;2022-07-10T10:21:09;0;0;
56688;PMS5003;42565;53.342;-1.534;2022-07-10T10:23:37;1;1;
56688;PMS5003;42565;53.342;-1.534;2022-07-10T10:26:04;1;1;
56688;PMS5003;42565;53.342;-1.534;2022-07-10T10:28:31;0;0;
56688;PMS5003;42565;53.342;-1.534;2022-07-10T10:31:00;0;0;
56688;PMS5003;42565;53.342;-1.534;2022-07-10T10:33:43;1;1;
56688;PMS5003;42565;53.342;-1.534;2022-07-10T10:36:12;2;2;
56688;PMS5003;42565;53.342;-1.534;2022-07-10T10:39:15;1;1;
56688;PMS5003;42565;53.342;-1.534;2022-07-10T10:41:47;0;0;
56688;PMS5003;42565;53.342;-1.534;2022-07-10T10:44:22;1;1;
56688;PMS5003;42565;53.342;-1.534;2022-07-10T10:46:53;0;0;
56688;PMS5003;42565;53.342;-1.534;2022-07-10T10:49:25;0;0;
56688;PMS5003;42565;53.342;-1.534;2022-07-10T10:52:00;1;1;
56688;PMS5003;42565;53.342;-1.534;2022-07-10T10:54:30;1;1;
56688;PMS5003;42565;53.342;-1.534;2022-07-10T10:57:34;1;1;
56688;PMS5003;42565;53.342;-1.534;2022-07-10T11:00:03;1;1;
56688;PMS5003;42565;53.342;-1.534;2022-07-10T11:02:32;1;1;
56688;PMS5003;42565;53.342;-1.534;2022-07-10T11:05:28;0;0;
56688;PMS5003;42565;53.342;-1.534;2022-07-10T11:08:05;1;1;
56688;PMS5003;42565;53.342;-1.534;2022-07-10T11:10:33;1;1;
56688;PMS5003;42565;53.342;-1.534;2022-07-10T11:13:02;0;0;
56688;PMS5003;42565;53.342;-1.534;2022-07-10T11:15:32;1;1;
56688;PMS5003;42565;53.342;-1.534;2022-07-10T11:18:03;1;1;
56688;PMS5003;42565;53.342;-1.534;2022-07-10T11:20:32;1;1;
56688;PMS5003;42565;53.342;-1.534;2022-07-10T11:23:06;1;1;
56688;PMS5003;42565;53.342;-1.534;2022-07-10T11:25:45;1;1;
56688;PMS5003;42565;53.342;-1.534;2022-07-10T11:28:17;1;1;
56688;PMS5003;42565;53.342;-1.534;2022-07-10T11:30:51;0;0;
56688;PMS5003;42565;53.342;-1.534;2022-07-10T11:33:19;1;1;
56688;PMS5003;42565;53.342;-1.534;2022-07-10T11:35:48;1;1;
56688;PMS5003;42565;53.342;-1.534;2022-07-10T11:38:19;0;0;
56688;PMS5003;42565;53.342;-1.534;2022-07-10T11:40:46;1;1;
56688;PMS5003;42565;53.342;-1.534;2022-07-10T11:43:14;1;1;
56688;PMS5003;42565;53.342;-1.534;2022-07-10T11:45:41;1;1;
56688;PMS5003;42565;53.342;-1.534;2022-07-10T11:48:16;1;1;
56688;PMS5003;42565;53.342;-1.534;2022-07-10T11:50:44;1;1;
56688;PMS5003;42565;53.342;-1.534;2022-07-10T11:53:11;0;0;
56688;PMS5003;42565;53.342;-1.534;2022-07-10T11:55:38;1;1;
56688;PMS5003;42565;53.342;-1.534;2022-07-10T11:58:14;2;2;
56688;PMS5003;42565;53.342;-1.534;2022-07-10T12:00:43;2;2;
56688;PMS5003;42565;53.342;-1.534;2022-07-10T12:03:22;1;1;
56688;PMS5003;42565;53.342;-1.534;2022-07-10T12:05:50;3;3;
56688;PMS5003;42565;53.342;-1.534;2022-07-10T12:08:17;3;3;
56688;PMS5003;42565;53.342;-1.534;2022-07-10T12:10:45;3;3;
56688;PMS5003;42565;53.342;-1.534;2022-07-10T12:13:12;4;4;
56688;PMS5003;42565;53.342;-1.534;2022-07-10T12:15:41;3;3;
56688;PMS5003;42565;53.342;-1.534;2022-07-10T12:18:09;2;2;
56688;PMS5003;42565;53.342;-1.534;2022-07-10T12:21:12;2;2;
56688;PMS5003;42565;53.342;-1.534;2022-07-10T12:23:50;3;3;
56688;PMS5003;42565;53.342;-1.534;2022-07-10T12:26:18;2;2;
56688;PMS5003;42565;53.342;-1.534;2022-07-10T12:28:49;2;2;
56688;PMS5003;42565;53.342;-1.534;2022-07-10T12:31:21;2;2;
56688;PMS5003;42565;53.342;-1.534;2022-07-10T12:33:50;2;2;
56688;PMS5003;42565;53.342;-1.534;2022-07-10T12:36:18;2;2;
56688;PMS5003;42565;53.342;-1.534;2022-07-10T12:38:52;1;1;
56688;PMS5003;42565;53.342;-1.534;2022-07-10T12:41:21;3;3;
56688;PMS5003;42565;53.342;-1.534;2022-07-10T12:43:48;2;2;
56688;PMS5003;42565;53.342;-1.534;2022-07-10T12:46:15;5;4;
56688;PMS5003;42565;53.342;-1.534;2022-07-10T12:48:43;4;4;
56688;PMS5003;42565;53.342;-1.534;2022-07-10T12:51:27;2;2;
56688;PMS5003;42565;53.342;-1.534;2022-07-10T12:53:56;3;3;
56688;PMS5003;42565;53.342;-1.534;2022-07-10T12:56:27;1;1;
56688;PMS5003;42565;53.342;-1.534;2022-07-10T12:58:57;3;3;
56688;PMS5003;42565;53.342;-1.534;2022-07-10T13:01:25;1;1;
56688;PMS5003;42565;53.342;-1.534;2022-07-10T13:03:57;1;1;
56688;PMS5003;42565;53.342;-1.534;2022-07-10T13:06:26;3;2;
56688;PMS5003;42565;53.342;-1.534;2022-07-10T13:08:54;1;1;
56688;PMS5003;42565;53.342;-1.534;2022-07-10T13:11:21;1;1;
56688;PMS5003;42565;53.342;-1.534;2022-07-10T13:13:49;2;2;
56688;PMS5003;42565;53.342;-1.534;2022-07-10T13:16:16;2;2;
56688;PMS5003;42565;53.342;-1.534;2022-07-10T13:18:44;1;0;
56688;PMS5003;42565;53.342;-1.534;2022-07-10T13:21:11;1;1;
56688;PMS5003;42565;53.342;-1.534;2022-07-10T13:23:39;2;2;
56688;PMS5003;42565;53.342;-1.534;2022-07-10T13:26:06;1;1;
56688;PMS5003;42565;53.342;-1.534;2022-07-10T13:28:34;0;0;
56688;PMS5003;42565;53.342;-1.534;2022-07-10T13:31:02;0;0;
56688;PMS5003;42565;53.342;-1.534;2022-07-10T13:33:29;2;2;
56688;PMS5003;42565;53.342;-1.534;2022-07-10T13:35:59;0;0;
56688;PMS5003;42565;53.342;-1.534;2022-07-10T13:38:26;1;1;
56688;PMS5003;42565;53.342;-1.534;2022-07-10T13:40:54;2;2;
56688;PMS5003;42565;53.342;-1.534;2022-07-10T13:43:21;2;2;
56688;PMS5003;42565;53.342;-1.534;2022-07-10T13:45:49;1;1;
56688;PMS5003;42565;53.342;-1.534;2022-07-10T13:48:16;2;2;
56688;PMS5003;42565;53.342;-1.534;2022-07-10T13:50:45;2;2;
56688;PMS5003;42565;53.342;-1.534;2022-07-10T13:53:12;1;1;
56688;PMS5003;42565;53.342;-1.534;2022-07-10T13:55:40;2;2;
56688;PMS5003;42565;53.342;-1.534;2022-07-10T13:58:07;1;1;
56688;PMS5003;42565;53.342;-1.534;2022-07-10T14:00:35;1;1;
56688;PMS5003;42565;53.342;-1.534;2022-07-10T14:03:02;1;1;
56688;PMS5003;42565;53.342;-1.534;2022-07-10T14:05:30;1;1;
56688;PMS5003;42565;53.342;-1.534;2022-07-10T14:07:57;1;1;
56688;PMS5003;42565;53.342;-1.534;2022-07-10T14:10:25;0;0;
56688;PMS5003;42565;53.342;-1.534;2022-07-10T14:12:52;2;2;
56688;PMS5003;42565;53.342;-1.534;2022-07-10T14:15:20;0;0;
56688;PMS5003;42565;53.342;-1.534;2022-07-10T14:17:47;1;1;
56688;PMS5003;42565;53.342;-1.534;2022-07-10T14:20:15;3;1;
56688;PMS5003;42565;53.342;-1.534;2022-07-10T14:22:42;1;1;
56688;PMS5003;42565;53.342;-1.534;2022-07-10T14:25:10;1;1;
56688;PMS5003;42565;53.342;-1.534;2022-07-10T14:27:37;2;1;
56688;PMS5003;42565;53.342;-1.534;2022-07-10T14:30:05;2;2;
56688;PMS5003;42565;53.342;-1.534;2022-07-10T14:32:34;2;2;
56688;PMS5003;42565;53.342;-1.534;2022-07-10T14:35:01;0;0;
56688;PMS5003;42565;53.342;-1.534;2022-07-10T14:37:29;2;1;
56688;PMS5003;42565;53.342;-1.534;2022-07-10T14:39:56;1;1;
56688;PMS5003;42565;53.342;-1.534;2022-07-10T14:42:24;2;2;
56688;PMS5003;42565;53.342;-1.534;2022-07-10T14:44:51;1;1;
56688;PMS5003;42565;53.342;-1.534;2022-07-10T14:47:19;1;1;
56688;PMS5003;42565;53.342;-1.534;2022-07-10T14:49:46;1;1;
56688;PMS5003;42565;53.342;-1.534;2022-07-10T14:52:14;1;1;
56688;PMS5003;42565;53.342;-1.534;2022-07-10T14:54:41;2;2;
56688;PMS5003;42565;53.342;-1.534;2022-07-10T14:57:09;1;1;
56688;PMS5003;42565;53.342;-1.534;2022-07-10T14:59:37;1;1;
56688;PMS5003;42565;53.342;-1.534;2022-07-10T15:02:04;0;0;
56688;PMS5003;42565;53.342;-1.534;2022-07-10T15:04:31;2;2;
56688;PMS5003;42565;53.342;-1.534;2022-07-10T15:06:59;1;1;
56688;PMS5003;42565;53.342;-1.534;2022-07-10T15:09:26;1;1;
56688;PMS5003;42565;53.342;-1.534;2022-07-10T15:11:54;1;1;
56688;PMS5003;42565;53.342;-1.534;2022-07-10T15:14:21;2;2;
56688;PMS5003;42565;53.342;-1.534;2022-07-10T15:16:49;3;2;
56688;PMS5003;42565;53.342;-1.534;2022-07-10T15:19:16;2;1;
56688;PMS5003;42565;53.342;-1.534;2022-07-10T15:21:44;2;1;
56688;PMS5003;42565;53.342;-1.534;2022-07-10T15:24:12;2;2;
56688;PMS5003;42565;53.342;-1.534;2022-07-10T15:26:39;2;2;
56688;PMS5003;42565;53.342;-1.534;2022-07-10T15:29:06;1;1;
56688;PMS5003;42565;53.342;-1.534;2022-07-10T15:31:34;2;2;
56688;PMS5003;42565;53.342;-1.534;2022-07-10T15:34:05;1;1;
56688;PMS5003;42565;53.342;-1.534;2022-07-10T15:36:34;1;1;
56688;PMS5003;42565;53.342;-1.534;2022-07-10T15:39:02;2;2;
56688;PMS5003;42565;53.342;-1.534;2022-07-10T15:41:29;2;2;
56688;PMS5003;42565;53.342;-1.534;2022-07-10T15:43:57;1;1;
56688;PMS5003;42565;53.342;-1.534;2022-07-10T15:46:24;2;1;
56688;PMS5003;42565;53.342;-1.534;2022-07-10T15:48:52;1;1;
56688;PMS5003;42565;53.342;-1.534;2022-07-10T15:51:19;2;2;
56688;PMS5003;42565;53.342;-1.534;2022-07-10T15:53:47;1;1;
56688;PMS5003;42565;53.342;-1.534;2022-07-10T15:56:14;1;1;
56688;PMS5003;42565;53.342;-1.534;2022-07-10T15:58:42;0;0;
56688;PMS5003;42565;53.342;-1.534;2022-07-10T16:01:10;1;1;
56688;PMS5003;42565;53.342;-1.534;2022-07-10T16:03:37;1;1;
56688;PMS5003;42565;53.342;-1.534;2022-07-10T16:06:05;2;2;
56688;PMS5003;42565;53.342;-1.534;2022-07-10T16:08:32;2;2;
56688;PMS5003;42565;53.342;-1.534;2022-07-10T16:10:59;1;1;
56688;PMS5003;42565;53.342;-1.534;2022-07-10T16:13:27;1;1;
56688;PMS5003;42565;53.342;-1.534;2022-07-10T16:15:54;0;0;
56688;PMS5003;42565;53.342;-1.534;2022-07-10T16:18:22;2;2;
56688;PMS5003;42565;53.342;-1.534;2022-07-10T16:20:49;1;1;
56688;PMS5003;42565;53.342;-1.534;2022-07-10T16:23:17;2;2;
56688;PMS5003;42565;53.342;-1.534;2022-07-10T16:25:44;2;2;
56688;PMS5003;42565;53.342;-1.534;2022-07-10T16:28:12;2;2;
56688;PMS5003;42565;53.342;-1.534;2022-07-10T16:30:39;2;2;
56688;PMS5003;42565;53.342;-1.534;2022-07-10T16:33:06;4;3;
56688;PMS5003;42565;53.342;-1.534;2022-07-10T16:35:34;1;1;
56688;PMS5003;42565;53.342;-1.534;2022-07-10T16:38:01;2;2;
56688;PMS5003;42565;53.342;-1.534;2022-07-10T16:40:29;0;0;